Time;durP1;ratioP1;P1;durP2;ratioP2;P2;SDS_P1;SDS_P2;PMS_P1;PMS_P2;Temp;Humidity;BMP_temperature;BMP_pressure;BME280_temperature;BME280_humidity;BME280_pressure;Samples;Min_cycle;Max_cycle;Signal;HPM_P1;HPM_P2
2022/05/09 00:00:27;;;;;;;4.73;2.20;;;;;;;;;;5035516;28;20872;-64
2022/05/09 00:02:53;;;;;;;4.83;2.20;;;;;;;;;;5053552;28;20240;-64
2022/05/09 00:05:20;;;;;;;4.60;2.47;;;;;;;;;;5053797;28;20261;-64
2022/05/09 00:07:47;;;;;;;5.10;2.47;;;;;;;;;;5053287;28;20717;-64
2022/05/09 00:10:14;;;;;;;3.37;2.30;;;;;;;;;;5036146;28;20189;-64
2022/05/09 00:12:40;;;;;;;2.20;2.00;;;;;;;;;;5053155;28;20175;-64
2022/05/09 00:15:07;;;;;;;4.57;2.30;;;;;;;;;;5053303;28;20213;-63
2022/05/09 00:17:33;;;;;;;5.37;2.40;;;;;;;;;;5035249;28;20198;-64
2022/05/09 00:19:59;;;;;;;7.30;2.40;;;;;;;;;;5052347;28;20662;-64
2022/05/09 00:22:25;;;;;;;5.10;2.37;;;;;;;;;;5053449;28;20181;-63
2022/05/09 00:24:51;;;;;;;4.70;2.30;;;;;;;;;;5053036;28;20248;-64
2022/05/09 00:27:17;;;;;;;3.00;2.30;;;;;;;;;;5053037;28;20201;-63
2022/05/09 00:29:43;;;;;;;4.40;2.17;;;;;;;;;;5053509;28;20213;-63
2022/05/09 00:32:09;;;;;;;4.67;3.30;;;;;;;;;;5053445;28;20205;-64
2022/05/09 00:34:37;;;;;;;5.47;2.60;;;;;;;;;;5053458;28;20202;-64
2022/05/09 00:37:03;;;;;;;6.00;2.60;;;;;;;;;;5053535;28;20294;-64
2022/05/09 00:39:29;;;;;;;4.07;2.30;;;;;;;;;;5053211;28;20166;-63
2022/05/09 00:42:05;;;;;;;6.73;2.90;;;;;;;;;;5053394;28;20176;-65
2022/05/09 00:44:31;;;;;;;3.27;2.40;;;;;;;;;;5053467;28;20170;-64
2022/05/09 00:46:57;;;;;;;3.83;2.30;;;;;;;;;;5053757;28;20693;-64
2022/05/09 00:49:46;;;;;;;3.83;2.60;;;;;;;;;;5053118;28;20556;-64
2022/05/09 00:52:21;;;;;;;4.50;2.60;;;;;;;;;;5053081;28;20163;-65
2022/05/09 00:54:52;;;;;;;6.43;2.90;;;;;;;;;;5053070;28;20213;-63
2022/05/09 00:57:21;;;;;;;3.20;2.43;;;;;;;;;;5053014;28;20221;-63
2022/05/09 00:59:49;;;;;;;5.87;2.97;;;;;;;;;;5053532;28;20175;-65
2022/05/09 01:02:15;;;;;;;4.83;2.37;;;;;;;;;;5053024;28;20263;-62
2022/05/09 01:04:50;;;;;;;2.70;2.27;;;;;;;;;;5052701;28;20658;-65
2022/05/09 01:07:17;;;;;;;4.70;2.87;;;;;;;;;;5052574;28;20197;-65
2022/05/09 01:09:43;;;;;;;2.63;2.10;;;;;;;;;;5052587;28;20190;-65
2022/05/09 01:12:10;;;;;;;4.77;2.50;;;;;;;;;;5052402;28;20645;-65
2022/05/09 01:14:39;;;;;;;4.83;2.50;;;;;;;;;;5052462;28;20210;-65
2022/05/09 01:17:05;;;;;;;5.80;2.43;;;;;;;;;;5052791;28;20191;-65
2022/05/09 01:19:31;;;;;;;2.53;2.33;;;;;;;;;;5052487;28;20254;-65
2022/05/09 01:21:58;;;;;;;3.37;2.43;;;;;;;;;;5052541;28;20714;-65
2022/05/09 01:24:25;;;;;;;5.97;2.70;;;;;;;;;;5052781;28;20183;-65
2022/05/09 01:26:51;;;;;;;6.20;2.57;;;;;;;;;;5052406;28;20199;-65
2022/05/09 01:29:20;;;;;;;7.60;3.13;;;;;;;;;;5052467;28;20257;-65
2022/05/09 01:31:46;;;;;;;3.73;2.90;;;;;;;;;;5056103;28;20643;-65
2022/05/09 01:34:13;;;;;;;6.27;2.87;;;;;;;;;;5056314;28;20244;-64
2022/05/09 01:36:39;;;;;;;6.87;2.77;;;;;;;;;;5055974;28;20251;-65
2022/05/09 01:39:06;;;;;;;6.57;3.47;;;;;;;;;;5062018;22;20170;-66
2022/05/09 01:41:37;;;;;;;6.13;3.43;;;;;;;;;;5056758;28;20173;-66
2022/05/09 01:44:03;;;;;;;5.33;2.70;;;;;;;;;;5038391;28;20205;-66
2022/05/09 01:46:29;;;;;;;4.17;3.13;;;;;;;;;;5038196;28;20182;-67
2022/05/09 01:51:42;;;;;;;4.17;3.00;;;;;;;;;;5056388;28;20178;-67
2022/05/09 01:54:09;;;;;;;5.27;3.23;;;;;;;;;;5055736;28;20262;-66
2022/05/09 01:56:36;;;;;;;7.30;3.03;;;;;;;;;;5055680;28;20304;-66
2022/05/09 01:59:04;;;;;;;7.50;3.47;;;;;;;;;;5055997;28;20202;-66
2022/05/09 02:01:34;;;;;;;13.03;3.50;;;;;;;;;;5055917;28;20182;-67
2022/05/09 02:04:00;;;;;;;10.53;3.13;;;;;;;;;;5037749;28;20178;-67
2022/05/09 02:06:26;;;;;;;8.43;3.07;;;;;;;;;;5055636;28;20228;-67
2022/05/09 02:08:52;;;;;;;6.20;3.20;;;;;;;;;;5055550;28;20174;-67
2022/05/09 02:11:18;;;;;;;4.90;2.60;;;;;;;;;;5055585;28;20179;-66
2022/05/09 02:13:44;;;;;;;6.47;3.50;;;;;;;;;;5055526;28;20186;-67
2022/05/09 02:16:10;;;;;;;6.17;3.20;;;;;;;;;;5037447;28;20259;-66
2022/05/09 02:18:37;;;;;;;7.80;3.60;;;;;;;;;;5055371;28;20179;-67
2022/05/09 02:21:03;;;;;;;6.87;3.37;;;;;;;;;;5055730;28;20245;-67
2022/05/09 02:23:29;;;;;;;5.93;3.20;;;;;;;;;;5037395;28;20174;-67
2022/05/09 02:25:55;;;;;;;10.47;2.97;;;;;;;;;;5055093;28;20189;-67
2022/05/09 02:28:21;;;;;;;8.23;3.20;;;;;;;;;;5055385;28;20178;-67
2022/05/09 02:30:47;;;;;;;5.83;2.90;;;;;;;;;;5055087;28;20284;-67
2022/05/09 02:33:14;;;;;;;7.07;3.60;;;;;;;;;;5055263;28;20183;-67
2022/05/09 02:35:40;;;;;;;6.77;3.47;;;;;;;;;;5055014;28;20686;-67
2022/05/09 02:38:06;;;;;;;5.67;3.17;;;;;;;;;;5054940;28;20254;-67
2022/05/09 02:40:36;;;;;;;5.87;3.03;;;;;;;;;;5036785;28;20590;-66
2022/05/09 02:43:02;;;;;;;10.70;3.77;;;;;;;;;;5054029;28;20181;-67
2022/05/09 02:45:29;;;;;;;10.60;3.60;;;;;;;;;;5054877;28;20189;-67
2022/05/09 02:47:55;;;;;;;5.60;3.10;;;;;;;;;;5054713;28;20266;-67
2022/05/09 02:50:22;;;;;;;9.43;3.40;;;;;;;;;;5054687;28;20651;-66
2022/05/09 02:52:49;;;;;;;5.93;3.30;;;;;;;;;;5055254;28;20186;-67
2022/05/09 02:55:15;;;;;;;7.50;3.23;;;;;;;;;;5054996;28;20281;-67
2022/05/09 02:57:41;;;;;;;4.80;2.90;;;;;;;;;;5054466;28;20607;-67
2022/05/09 03:00:09;;;;;;;9.23;3.83;;;;;;;;;;5054912;28;20281;-66
2022/05/09 03:02:35;;;;;;;6.50;3.60;;;;;;;;;;5054447;28;20186;-66
2022/05/09 03:05:01;;;;;;;5.47;3.40;;;;;;;;;;5054517;28;20186;-66
2022/05/09 03:07:27;;;;;;;9.70;3.97;;;;;;;;;;5054382;28;20261;-65
2022/05/09 03:09:53;;;;;;;7.03;3.60;;;;;;;;;;5036429;28;20206;-66
2022/05/09 03:12:19;;;;;;;6.03;3.53;;;;;;;;;;5036292;28;20190;-67
2022/05/09 03:14:46;;;;;;;6.80;3.20;;;;;;;;;;5036216;28;20210;-66
2022/05/09 03:17:12;;;;;;;8.20;3.77;;;;;;;;;;5054161;28;20744;-67
2022/05/09 03:19:38;;;;;;;5.10;3.43;;;;;;;;;;5054037;28;20255;-66
2022/05/09 03:22:05;;;;;;;5.83;3.43;;;;;;;;;;5054088;28;20262;-67
2022/05/09 03:24:31;;;;;;;7.13;3.53;;;;;;;;;;5054441;28;20183;-65
2022/05/09 03:26:59;;;;;;;7.97;3.27;;;;;;;;;;5053948;28;20179;-67
2022/05/09 03:29:26;;;;;;;6.13;3.60;;;;;;;;;;5054655;28;20195;-67
2022/05/09 03:31:53;;;;;;;5.07;3.20;;;;;;;;;;5053893;28;20235;-67
2022/05/09 03:34:19;;;;;;;11.27;3.20;;;;;;;;;;5053785;28;20206;-67
2022/05/09 03:36:45;;;;;;;5.73;3.80;;;;;;;;;;5053853;28;20696;-65
2022/05/09 03:39:11;;;;;;;6.27;3.00;;;;;;;;;;5035639;28;20249;-65
2022/05/09 03:41:38;;;;;;;6.63;3.40;;;;;;;;;;5035865;28;20202;-66
2022/05/09 03:44:04;;;;;;;7.10;3.47;;;;;;;;;;5035826;28;20182;-65
2022/05/09 03:46:30;;;;;;;7.63;3.20;;;;;;;;;;5053903;28;20171;-65
2022/05/09 03:48:56;;;;;;;6.73;3.23;;;;;;;;;;5053448;28;20639;-66
2022/05/09 03:51:22;;;;;;;5.40;3.03;;;;;;;;;;5053841;28;20181;-66
2022/05/09 03:53:48;;;;;;;6.13;3.20;;;;;;;;;;5053473;28;20185;-67
2022/05/09 03:56:14;;;;;;;9.80;3.07;;;;;;;;;;5035514;28;20670;-66
2022/05/09 03:58:40;;;;;;;6.77;2.93;;;;;;;;;;5035568;28;20624;-67
2022/05/09 04:01:08;;;;;;;6.43;3.33;;;;;;;;;;5053291;28;20575;-67
2022/05/09 04:03:34;;;;;;;3.70;2.73;;;;;;;;;;5035437;28;20178;-66
2022/05/09 04:06:00;;;;;;;5.67;2.87;;;;;;;;;;5053300;28;20257;-66
2022/05/09 04:08:26;;;;;;;4.33;3.00;;;;;;;;;;5035328;28;20278;-67
2022/05/09 04:10:54;;;;;;;8.23;3.20;;;;;;;;;;5053170;28;20205;-67
2022/05/09 04:13:21;;;;;;;8.23;3.63;;;;;;;;;;5053196;28;20178;-67
2022/05/09 04:18:35;;;;;;;6.97;2.97;;;;;;;;;;5054357;28;20178;-67
2022/05/09 04:21:01;;;;;;;7.97;3.87;;;;;;;;;;5035910;28;20293;-67
2022/05/09 04:23:27;;;;;;;5.37;3.17;;;;;;;;;;5036071;28;20227;-65
2022/05/09 04:25:53;;;;;;;8.37;3.00;;;;;;;;;;5035804;28;20186;-65
2022/05/09 04:28:20;;;;;;;10.47;3.43;;;;;;;;;;5053545;28;20189;-66
2022/05/09 04:30:46;;;;;;;7.03;3.80;;;;;;;;;;5053152;28;20202;-66
2022/05/09 04:33:12;;;;;;;7.37;3.13;;;;;;;;;;5053177;28;20574;-67
2022/05/09 04:35:39;;;;;;;4.47;2.80;;;;;;;;;;5053035;28;20213;-67
2022/05/09 04:38:06;;;;;;;7.57;3.57;;;;;;;;;;5053181;28;20209;-66
2022/05/09 04:40:35;;;;;;;6.53;3.80;;;;;;;;;;5052822;28;20302;-66
2022/05/09 04:43:01;;;;;;;4.73;2.80;;;;;;;;;;5053022;28;20607;-66
2022/05/09 04:45:28;;;;;;;7.17;3.80;;;;;;;;;;5053115;28;20236;-67
2022/05/09 04:47:54;;;;;;;6.53;3.33;;;;;;;;;;5034968;28;20188;-67
2022/05/09 04:50:21;;;;;;;7.70;3.63;;;;;;;;;;5053046;28;20207;-66
2022/05/09 04:52:48;;;;;;;7.30;3.37;;;;;;;;;;5034906;28;20563;-66
2022/05/09 04:55:15;;;;;;;7.80;3.40;;;;;;;;;;5053055;28;20202;-66
2022/05/09 04:57:41;;;;;;;5.47;3.40;;;;;;;;;;5034970;28;20181;-66
2022/05/09 05:00:09;;;;;;;9.00;3.60;;;;;;;;;;5052643;28;20190;-67
2022/05/09 05:02:36;;;;;;;5.30;3.27;;;;;;;;;;5034821;28;20179;-67
2022/05/09 05:05:02;;;;;;;9.93;3.93;;;;;;;;;;5036060;28;20182;-67
2022/05/09 05:07:28;;;;;;;7.97;3.83;;;;;;;;;;5056504;28;20239;-66
2022/05/09 05:09:54;;;;;;;9.00;4.30;;;;;;;;;;5056970;28;20673;-65
2022/05/09 05:12:20;;;;;;;5.97;4.10;;;;;;;;;;5038734;28;20221;-64
2022/05/09 05:14:46;;;;;;;8.07;4.17;;;;;;;;;;5056550;28;20688;-64
2022/05/09 05:17:12;;;;;;;8.30;4.03;;;;;;;;;;5038413;28;20665;-64
2022/05/09 05:19:43;;;;;;;5.70;4.37;;;;;;;;;;5038522;28;20666;-64
2022/05/09 05:22:12;;;;;;;14.67;4.43;;;;;;;;;;5056882;28;20151;-64
2022/05/09 05:24:38;;;;;;;5.80;4.27;;;;;;;;;;5056250;28;20638;-64
2022/05/09 05:27:05;;;;;;;6.43;3.80;;;;;;;;;;5056182;28;20175;-65
2022/05/09 05:29:31;;;;;;;6.87;3.93;;;;;;;;;;5056238;28;20257;-64
2022/05/09 05:31:58;;;;;;;6.87;3.73;;;;;;;;;;5056891;28;20198;-65
2022/05/09 05:34:24;;;;;;;5.00;3.70;;;;;;;;;;5056329;28;20206;-65
2022/05/09 05:36:54;;;;;;;5.67;4.50;;;;;;;;;;5038245;28;20566;-66
2022/05/09 05:39:20;;;;;;;10.13;5.60;;;;;;;;;;5056019;28;20577;-65
2022/05/09 05:41:46;;;;;;;8.77;4.83;;;;;;;;;;5056163;28;20189;-65
2022/05/09 05:44:12;;;;;;;9.77;4.70;;;;;;;;;;5055772;28;20174;-65
2022/05/09 05:46:42;;;;;;;12.43;5.00;;;;;;;;;;5056102;28;20198;-65
2022/05/09 05:49:09;;;;;;;15.63;5.23;;;;;;;;;;5055718;28;20202;-65
2022/05/09 05:51:36;;;;;;;8.00;4.37;;;;;;;;;;5055768;28;20167;-65
2022/05/09 05:54:02;;;;;;;12.70;4.60;;;;;;;;;;5055773;28;20543;-65
2022/05/09 05:56:28;;;;;;;11.67;5.67;;;;;;;;;;5055768;28;20185;-65
2022/05/09 05:58:54;;;;;;;9.00;4.83;;;;;;;;;;5037704;28;20182;-65
2022/05/09 06:01:22;;;;;;;7.47;4.80;;;;;;;;;;5055620;28;20175;-65
2022/05/09 06:03:48;;;;;;;8.57;5.73;;;;;;;;;;5055528;28;20206;-66
2022/05/09 06:06:15;;;;;;;12.63;4.80;;;;;;;;;;5055483;28;20182;-65
2022/05/09 06:08:43;;;;;;;9.53;5.00;;;;;;;;;;5037564;28;20185;-65
2022/05/09 06:11:09;;;;;;;14.03;5.00;;;;;;;;;;5037520;28;20209;-64
2022/05/09 06:13:35;;;;;;;11.73;4.70;;;;;;;;;;5037510;28;20220;-65
2022/05/09 06:16:01;;;;;;;16.27;4.83;;;;;;;;;;5054777;28;20234;-64
2022/05/09 06:18:27;;;;;;;10.67;4.47;;;;;;;;;;5037001;28;20182;-64
2022/05/09 06:20:53;;;;;;;9.97;4.70;;;;;;;;;;5037264;28;20276;-65
2022/05/09 06:23:19;;;;;;;10.53;4.83;;;;;;;;;;5055300;28;20705;-65
2022/05/09 06:25:46;;;;;;;6.93;4.63;;;;;;;;;;5055307;28;20182;-65
2022/05/09 06:28:14;;;;;;;7.57;4.70;;;;;;;;;;5055360;28;20178;-66
2022/05/09 06:30:40;;;;;;;8.97;4.57;;;;;;;;;;5055001;28;20202;-66
2022/05/09 06:33:07;;;;;;;11.00;5.43;;;;;;;;;;5055173;28;20186;-66
2022/05/09 06:35:33;;;;;;;20.03;6.03;;;;;;;;;;5054803;28;20229;-65
2022/05/09 06:38:03;;;;;;;6.70;4.40;;;;;;;;;;5055004;28;20642;-65
2022/05/09 06:40:30;;;;;;;7.63;4.47;;;;;;;;;;5054823;28;20242;-65
2022/05/09 06:42:57;;;;;;;8.00;5.13;;;;;;;;;;5054892;28;20175;-65
2022/05/09 06:45:23;;;;;;;9.30;4.77;;;;;;;;;;5036993;28;20190;-65
2022/05/09 06:47:50;;;;;;;9.57;5.67;;;;;;;;;;5054670;28;20653;-66
2022/05/09 06:50:17;;;;;;;5.47;4.43;;;;;;;;;;5036878;28;20256;-65
2022/05/09 06:52:43;;;;;;;7.73;4.60;;;;;;;;;;5054764;28;20240;-65
2022/05/09 06:55:10;;;;;;;12.93;4.70;;;;;;;;;;5054937;28;20202;-64
2022/05/09 06:57:40;;;;;;;11.37;4.37;;;;;;;;;;5054598;28;20547;-65
2022/05/09 07:00:07;;;;;;;9.40;4.83;;;;;;;;;;5054725;28;20627;-65
2022/05/09 07:02:33;;;;;;;6.20;4.43;;;;;;;;;;5036754;28;20674;-65
2022/05/09 07:04:59;;;;;;;6.80;4.80;;;;;;;;;;5054537;28;20183;-65
2022/05/09 07:07:25;;;;;;;8.00;4.67;;;;;;;;;;5054559;28;20224;-65
2022/05/09 07:09:51;;;;;;;8.80;4.57;;;;;;;;;;5054489;28;20277;-66
2022/05/09 07:12:17;;;;;;;11.53;4.60;;;;;;;;;;5054546;28;20655;-65
2022/05/09 07:14:43;;;;;;;9.63;5.23;;;;;;;;;;5054176;28;20694;-65
2022/05/09 07:17:09;;;;;;;7.43;5.07;;;;;;;;;;5054436;28;20170;-66
2022/05/09 07:19:35;;;;;;;13.87;5.23;;;;;;;;;;5054378;28;20281;-65
2022/05/09 07:22:01;;;;;;;7.97;4.70;;;;;;;;;;5054229;28;20171;-65
2022/05/09 07:24:27;;;;;;;8.30;5.27;;;;;;;;;;5054160;28;20283;-65
2022/05/09 07:26:53;;;;;;;7.50;4.90;;;;;;;;;;5053913;28;20178;-66
2022/05/09 07:29:19;;;;;;;10.53;5.00;;;;;;;;;;5053527;28;20289;-64
2022/05/09 07:31:44;;;;;;;9.93;4.97;;;;;;;;;;5054206;28;20178;-64
2022/05/09 07:34:10;;;;;;;7.03;4.27;;;;;;;;;;5054026;28;20182;-64
2022/05/09 07:36:36;;;;;;;8.00;4.17;;;;;;;;;;5035981;28;20185;-65
2022/05/09 07:39:03;;;;;;;8.57;4.00;;;;;;;;;;5053593;28;20178;-65
2022/05/09 07:41:29;;;;;;;6.47;3.37;;;;;;;;;;5036018;28;20213;-65
2022/05/09 07:43:55;;;;;;;4.80;3.07;;;;;;;;;;5078497;22;20226;-67
2022/05/09 07:46:23;;;;;;;5.03;3.10;;;;;;;;;;5036262;28;20175;-65
2022/05/09 07:48:49;;;;;;;4.47;3.03;;;;;;;;;;5036208;28;20583;-64
2022/05/09 07:51:15;;;;;;;3.93;2.60;;;;;;;;;;5036327;28;20182;-69
2022/05/09 07:53:42;;;;;;;4.23;2.87;;;;;;;;;;5054580;28;20681;-66
2022/05/09 07:56:08;;;;;;;5.20;2.83;;;;;;;;;;5054002;28;20209;-66
2022/05/09 07:58:35;;;;;;;3.20;2.87;;;;;;;;;;5054537;28;20174;-67
2022/05/09 08:01:02;;;;;;;4.20;2.73;;;;;;;;;;5053781;28;20664;-66
2022/05/09 08:03:32;;;;;;;4.67;2.47;;;;;;;;;;5035779;28;20700;-66
2022/05/09 08:06:00;;;;;;;3.30;2.40;;;;;;;;;;5053677;28;20202;-66
2022/05/09 08:08:28;;;;;;;3.43;2.13;;;;;;;;;;5035958;28;20182;-66
2022/05/09 08:10:55;;;;;;;7.57;2.97;;;;;;;;;;5053654;28;20182;-67
2022/05/09 08:13:21;;;;;;;4.53;2.40;;;;;;;;;;5053622;28;20531;-67
2022/05/09 08:15:47;;;;;;;4.43;2.43;;;;;;;;;;5035787;28;20198;-65
2022/05/09 08:18:13;;;;;;;3.27;2.40;;;;;;;;;;5053917;28;20188;-67
2022/05/09 08:20:42;;;;;;;4.13;2.30;;;;;;;;;;5053591;28;20182;-68
2022/05/09 08:23:12;;;;;;;4.37;2.60;;;;;;;;;;5035652;28;20187;-67
2022/05/09 08:25:39;;;;;;;5.53;2.83;;;;;;;;;;5054265;28;20198;-64
2022/05/09 08:28:07;;;;;;;4.70;2.47;;;;;;;;;;5035733;28;20281;-64
2022/05/09 08:30:34;;;;;;;3.17;2.53;;;;;;;;;;5035659;28;20182;-64
2022/05/09 08:33:02;;;;;;;3.50;2.40;;;;;;;;;;5035846;28;20192;-64
2022/05/09 08:35:28;;;;;;;5.97;2.43;;;;;;;;;;5053296;28;20198;-63
2022/05/09 08:37:55;;;;;;;3.17;2.87;;;;;;;;;;5053575;28;20181;-64
2022/05/09 08:40:28;;;;;;;10.27;3.03;;;;;;;;;;5037324;28;20606;-64
2022/05/09 08:42:59;;;;;;;5.03;3.07;;;;;;;;;;5057742;28;20166;-64
2022/05/09 08:45:33;;;;;;;3.63;2.67;;;;;;;;;;5057506;28;20297;-63
2022/05/09 08:48:05;;;;;;;7.47;3.53;;;;;;;;;;5057904;28;20174;-63
2022/05/09 08:50:45;;;;;;;3.60;2.97;;;;;;;;;;5039562;28;20236;-63
2022/05/09 08:53:13;;;;;;;4.10;3.00;;;;;;;;;;5057884;28;20189;-62
2022/05/09 08:55:41;;;;;;;6.10;3.10;;;;;;;;;;5057735;28;20277;-62
2022/05/09 08:58:19;;;;;;;9.43;3.17;;;;;;;;;;5057562;28;20178;-62
2022/05/09 09:00:47;;;;;;;9.40;3.60;;;;;;;;;;5057762;28;20166;-62
2022/05/09 09:03:16;;;;;;;5.57;3.97;;;;;;;;;;5060814;28;20181;-62
2022/05/09 09:05:44;;;;;;;4.30;3.40;;;;;;;;;;5059196;28;20183;-63
2022/05/09 09:08:19;;;;;;;4.83;3.17;;;;;;;;;;5057477;28;20175;-63
2022/05/09 09:11:10;;;;;;;7.50;3.73;;;;;;;;;;5057281;28;20173;-63
2022/05/09 09:13:57;;;;;;;7.63;3.57;;;;;;;;;;5057175;28;20202;-63
2022/05/09 09:16:41;;;;;;;4.93;3.20;;;;;;;;;;5057376;28;20194;-63
2022/05/09 09:19:07;;;;;;;5.80;3.87;;;;;;;;;;5056853;28;20163;-63
2022/05/09 09:21:56;;;;;;;7.83;4.30;;;;;;;;;;5056612;28;20590;-63
2022/05/09 09:24:40;;;;;;;5.57;4.07;;;;;;;;;;5056908;28;20206;-63
2022/05/09 09:27:21;;;;;;;7.40;4.60;;;;;;;;;;5056468;28;20642;-63
2022/05/09 09:29:49;;;;;;;11.40;4.60;;;;;;;;;;5056709;28;20627;-63
2022/05/09 09:32:20;;;;;;;9.37;4.47;;;;;;;;;;5038582;28;20229;-63
2022/05/09 09:34:46;;;;;;;8.10;4.50;;;;;;;;;;5056536;28;20214;-64
2022/05/09 09:37:13;;;;;;;6.37;4.13;;;;;;;;;;5056342;28;20179;-63
2022/05/09 09:39:40;;;;;;;9.53;4.40;;;;;;;;;;5038503;28;20277;-63
2022/05/09 09:42:06;;;;;;;7.00;4.27;;;;;;;;;;5056364;28;20181;-63
2022/05/09 09:44:36;;;;;;;8.57;4.87;;;;;;;;;;5056110;28;20251;-63
2022/05/09 09:47:08;;;;;;;9.23;4.50;;;;;;;;;;5057171;28;20197;-63
2022/05/09 09:49:37;;;;;;;5.93;4.60;;;;;;;;;;5056291;28;20183;-64
2022/05/09 09:52:04;;;;;;;5.97;4.53;;;;;;;;;;5056216;28;20196;-64
2022/05/09 09:54:33;;;;;;;6.07;4.20;;;;;;;;;;5037925;28;20666;-64
2022/05/09 09:57:18;;;;;;;6.13;4.17;;;;;;;;;;5055993;28;20224;-64
2022/05/09 09:59:44;;;;;;;7.63;4.80;;;;;;;;;;5038168;28;20178;-64
2022/05/09 10:02:16;;;;;;;5.97;4.20;;;;;;;;;;5056048;28;20185;-64
2022/05/09 10:04:43;;;;;;;5.70;5.10;;;;;;;;;;5037875;28;20202;-64
2022/05/09 10:07:27;;;;;;;7.83;4.30;;;;;;;;;;5055905;28;20171;-64
2022/05/09 10:10:07;;;;;;;8.37;5.20;;;;;;;;;;5056113;28;20179;-64
2022/05/09 10:12:34;;;;;;;11.50;5.30;;;;;;;;;;5055702;28;20643;-64
2022/05/09 10:15:01;;;;;;;6.10;4.47;;;;;;;;;;5055390;28;20281;-64
2022/05/09 10:17:29;;;;;;;11.27;5.10;;;;;;;;;;5055589;28;20234;-64
2022/05/09 10:19:56;;;;;;;9.03;5.57;;;;;;;;;;5055562;28;20224;-65
2022/05/09 10:25:14;;;;;;;9.43;5.70;;;;;;;;;;5055867;28;20267;-63
2022/05/09 10:27:40;;;;;;;9.30;4.90;;;;;;;;;;5055437;28;20240;-63
2022/05/09 10:30:08;;;;;;;7.90;4.90;;;;;;;;;;5055660;28;20548;-63
2022/05/09 10:32:45;;;;;;;10.47;5.30;;;;;;;;;;5055724;28;20185;-63
2022/05/09 10:35:11;;;;;;;7.37;5.03;;;;;;;;;;5055636;28;20289;-63
2022/05/09 10:37:55;;;;;;;12.30;5.70;;;;;;;;;;5055606;28;20616;-63
2022/05/09 10:40:25;;;;;;;8.90;5.47;;;;;;;;;;5055845;28;20202;-63
2022/05/09 10:42:55;;;;;;;7.53;5.10;;;;;;;;;;5037478;28;20193;-63
2022/05/09 10:45:27;;;;;;;9.93;5.97;;;;;;;;;;5055039;28;20309;-63
2022/05/09 10:47:57;;;;;;;11.03;6.33;;;;;;;;;;5055134;28;20174;-63
2022/05/09 10:50:26;;;;;;;9.30;5.73;;;;;;;;;;5055433;28;20171;-63
2022/05/09 10:53:09;;;;;;;8.33;5.80;;;;;;;;;;5037362;28;20704;-65
2022/05/09 10:56:03;;;;;;;7.13;5.50;;;;;;;;;;5037243;28;20297;-65
2022/05/09 10:58:35;;;;;;;7.83;5.40;;;;;;;;;;5025350;28;20191;-64
2022/05/09 11:01:06;;;;;;;7.10;5.30;;;;;;;;;;5055063;28;20182;-65
2022/05/09 11:03:37;;;;;;;6.00;4.60;;;;;;;;;;5054842;28;20582;-65
2022/05/09 11:06:22;;;;;;;8.57;5.10;;;;;;;;;;5054913;28;20250;-65
2022/05/09 11:09:02;;;;;;;7.73;5.30;;;;;;;;;;5036794;28;20179;-65
2022/05/09 11:11:35;;;;;;;8.27;5.33;;;;;;;;;;5055047;28;20258;-64
2022/05/09 11:14:11;;;;;;;7.67;4.60;;;;;;;;;;5054523;28;20194;-64
2022/05/09 11:16:47;;;;;;;7.87;5.17;;;;;;;;;;5054901;28;20261;-64
2022/05/09 11:19:20;;;;;;;5.93;4.80;;;;;;;;;;5055041;28;20184;-65
2022/05/09 11:21:49;;;;;;;6.60;5.33;;;;;;;;;;5054571;28;20175;-64
2022/05/09 11:24:25;;;;;;;5.90;5.13;;;;;;;;;;5054282;28;20681;-64
2022/05/09 11:26:55;;;;;;;9.50;4.87;;;;;;;;;;5054321;28;20166;-64
2022/05/09 11:29:35;;;;;;;5.77;4.20;;;;;;;;;;5054207;28;20248;-64
2022/05/09 11:32:17;;;;;;;6.07;4.73;;;;;;;;;;5036365;28;20240;-64
2022/05/09 11:34:42;;;;;;;4.70;4.30;;;;;;;;;;5036102;28;20285;-64
2022/05/09 11:37:27;;;;;;;6.30;5.40;;;;;;;;;;5054072;28;20195;-64
2022/05/09 11:40:12;;;;;;;5.43;4.87;;;;;;;;;;5054253;28;20174;-64
2022/05/09 11:46:00;;;;;;;6.30;5.23;;;;;;;;;;5053778;28;20256;-65
2022/05/09 11:48:35;;;;;;;7.53;5.20;;;;;;;;;;4999834;28;20232;-65
2022/05/09 11:51:07;;;;;;;10.40;5.00;;;;;;;;;;5053627;28;20185;-65
2022/05/09 11:53:37;;;;;;;8.50;4.90;;;;;;;;;;5054019;28;20512;-65
2022/05/09 11:56:05;;;;;;;4.67;4.17;;;;;;;;;;5053608;28;20202;-66
2022/05/09 11:58:32;;;;;;;5.57;4.83;;;;;;;;;;5053856;28;20655;-65
2022/05/09 12:00:58;;;;;;;5.23;4.67;;;;;;;;;;5053614;28;20182;-66
2022/05/09 12:03:47;;;;;;;5.93;4.60;;;;;;;;;;5054070;28;20257;-65
2022/05/09 12:06:29;;;;;;;6.07;4.60;;;;;;;;;;5043524;28;20248;-65
2022/05/09 12:08:56;;;;;;;9.90;4.70;;;;;;;;;;5053932;28;20185;-65
2022/05/09 12:11:52;;;;;;;6.30;4.90;;;;;;;;;;5036229;28;20240;-64
2022/05/09 12:14:39;;;;;;;5.53;3.83;;;;;;;;;;5018442;28;20210;-64
2022/05/09 12:17:16;;;;;;;4.93;4.40;;;;;;;;;;5054022;28;20634;-64
2022/05/09 12:19:42;;;;;;;5.63;4.33;;;;;;;;;;5053779;28;20173;-64
2022/05/09 12:22:17;;;;;;;4.80;4.30;;;;;;;;;;5053655;28;20182;-63
2022/05/09 12:24:44;;;;;;;5.63;4.70;;;;;;;;;;5035704;28;20240;-64
2022/05/09 12:27:29;;;;;;;6.43;4.63;;;;;;;;;;5053735;28;20177;-64
2022/05/09 12:29:58;;;;;;;4.70;4.30;;;;;;;;;;5053466;28;20166;-64
2022/05/09 12:32:24;;;;;;;6.67;4.97;;;;;;;;;;5053702;28;20257;-64
2022/05/09 12:34:52;;;;;;;7.73;5.23;;;;;;;;;;5035255;28;20352;-66
2022/05/09 12:37:22;;;;;;;5.43;4.77;;;;;;;;;;5035335;28;20175;-64
2022/05/09 12:39:50;;;;;;;5.30;4.37;;;;;;;;;;5053375;28;20166;-64
2022/05/09 12:42:25;;;;;;;4.33;4.00;;;;;;;;;;5053091;28;20174;-64
2022/05/09 12:44:53;;;;;;;4.93;4.43;;;;;;;;;;5053030;28;20689;-64
2022/05/09 12:47:22;;;;;;;6.80;4.60;;;;;;;;;;5035156;28;20174;-64
2022/05/09 12:49:57;;;;;;;6.17;4.30;;;;;;;;;;5052929;28;20233;-64
2022/05/09 12:52:24;;;;;;;6.20;4.60;;;;;;;;;;5034981;28;20646;-64
2022/05/09 12:57:38;;;;;;;5.50;4.17;;;;;;;;;;5053166;28;20174;-64
2022/05/09 13:00:09;;;;;;;6.63;4.50;;;;;;;;;;5053133;28;20203;-64
2022/05/09 13:02:35;;;;;;;5.00;4.50;;;;;;;;;;5053033;28;20213;-65
2022/05/09 13:05:02;;;;;;;5.63;3.97;;;;;;;;;;5053005;28;20202;-64
2022/05/09 13:07:28;;;;;;;4.87;4.37;;;;;;;;;;5053122;28;20179;-64
2022/05/09 13:09:55;;;;;;;4.60;4.20;;;;;;;;;;5052923;28;20186;-64
2022/05/09 13:12:36;;;;;;;5.70;4.57;;;;;;;;;;5035299;28;20187;-64
2022/05/09 13:15:06;;;;;;;4.70;4.20;;;;;;;;;;5052781;28;20202;-64
2022/05/09 13:17:37;;;;;;;5.50;4.53;;;;;;;;;;5034838;28;20182;-64
2022/05/09 13:20:11;;;;;;;4.40;3.87;;;;;;;;;;5034729;28;20174;-65
2022/05/09 13:22:48;;;;;;;4.50;4.10;;;;;;;;;;5052653;28;20173;-65
2022/05/09 13:25:21;;;;;;;5.50;4.33;;;;;;;;;;5034731;28;20752;-65
2022/05/09 13:27:49;;;;;;;6.77;4.40;;;;;;;;;;5056289;28;20572;-65
2022/05/09 13:30:15;;;;;;;7.63;4.87;;;;;;;;;;5056309;28;20575;-65
2022/05/09 13:32:41;;;;;;;5.43;4.13;;;;;;;;;;5056089;28;20189;-65
2022/05/09 13:35:21;;;;;;;5.53;4.40;;;;;;;;;;5038045;28;20210;-65
2022/05/09 13:37:52;;;;;;;5.33;4.13;;;;;;;;;;5056423;28;20178;-65
2022/05/09 13:40:19;;;;;;;7.43;4.37;;;;;;;;;;5056754;28;20168;-65
2022/05/09 13:42:47;;;;;;;4.63;4.10;;;;;;;;;;5038190;28;20241;-64
2022/05/09 13:45:17;;;;;;;5.30;4.33;;;;;;;;;;5071624;22;20238;-66
2022/05/09 13:47:45;;;;;;;4.93;4.30;;;;;;;;;;5038272;28;20175;-67
2022/05/09 13:50:11;;;;;;;4.67;4.27;;;;;;;;;;5056951;28;20243;-66
2022/05/09 13:52:39;;;;;;;6.87;4.27;;;;;;;;;;5056974;28;20232;-66
2022/05/09 13:55:06;;;;;;;8.70;4.53;;;;;;;;;;5056960;28;20208;-66
2022/05/09 13:57:36;;;;;;;5.03;4.53;;;;;;;;;;5056970;28;20178;-66
2022/05/09 14:00:02;;;;;;;;;;;;;;;;;;5039885;28;20070;-66
2022/05/09 14:02:30;;;;;;;5.63;5.13;;;;;;;;;;5056715;28;20441;-66
2022/05/09 14:05:15;;;;;;;5.50;4.50;;;;;;;;;;5058051;28;20662;-65
2022/05/09 14:07:41;;;;;;;5.20;4.30;;;;;;;;;;5057426;28;20182;-66
2022/05/09 14:10:26;;;;;;;4.72;4.32;;;;;;;;;;5057316;28;20174;-67
2022/05/09 14:12:53;;;;;;;4.53;4.13;;;;;;;;;;5058811;28;20189;-66
2022/05/09 14:15:20;;;;;;;4.93;4.38;;;;;;;;;;5057455;28;20311;-66
2022/05/09 14:17:59;;;;;;;3.90;3.58;;;;;;;;;;5057771;28;20175;-68
2022/05/09 14:20:27;;;;;;;7.60;3.90;;;;;;;;;;5057746;28;20583;-67
2022/05/09 14:22:53;;;;;;;4.13;3.72;;;;;;;;;;5039742;28;20260;-67
2022/05/09 14:30:49;;;;;;;4.30;3.72;;;;;;;;;;5060098;28;20663;-66
2022/05/09 14:33:35;;;;;;;4.90;4.43;;;;;;;;;;5055749;28;20253;-67
2022/05/09 14:36:04;;;;;;;7.60;3.90;;;;;;;;;;5037152;28;20560;-67
2022/05/09 14:38:32;;;;;;;3.40;3.10;;;;;;;;;;5036174;28;20170;-67
2022/05/09 14:41:36;;;;;;;7.00;4.50;;;;;;;;;;5055429;28;20170;-67
2022/05/09 14:44:14;;;;;;;4.25;3.85;;;;;;;;;;5055054;28;20179;-67
2022/05/09 14:46:59;;;;;;;4.55;3.78;;;;;;;;;;5037402;28;20607;-66
2022/05/09 14:49:26;;;;;;;4.38;3.50;;;;;;;;;;5055329;28;20170;-67
2022/05/09 14:52:06;;;;;;;6.55;3.85;;;;;;;;;;5037236;28;20178;-67
2022/05/09 14:54:40;;;;;;;4.47;4.07;;;;;;;;;;5055332;28;20558;-67
2022/05/09 14:57:26;;;;;;;3.85;3.55;;;;;;;;;;5055139;28;20291;-67
2022/05/09 14:59:57;;;;;;;6.60;4.60;;;;;;;;;;5054954;28;20622;-67
2022/05/09 15:02:25;;;;;;;5.22;4.68;;;;;;;;;;5054945;28;20191;-67
2022/05/09 15:04:53;;;;;;;4.50;4.10;;;;;;;;;;5054923;28;20689;-67
2022/05/09 15:07:20;;;;;;;4.30;3.65;;;;;;;;;;5054835;28;20183;-67
2022/05/09 15:09:46;;;;;;;5.57;4.45;;;;;;;;;;5054764;28;20174;-67
2022/05/09 15:12:19;;;;;;;4.78;4.38;;;;;;;;;;5054202;28;20174;-67
2022/05/09 15:14:46;;;;;;;4.63;3.92;;;;;;;;;;5036203;28;20579;-67